sensor_id;sensor_type;location;lat;lon;timestamp;P1;durP1;ratioP1;P2;durP2;ratioP2
35326;SDS011;21436;52.348;20.928;2023-07-20T00:00:44;7.50;;;4.43;;
35326;SDS011;21436;52.348;20.928;2023-07-20T00:03:31;6.53;;;4.22;;
35326;SDS011;21436;52.348;20.928;2023-07-20T00:05:59;11.98;;;4.35;;
35326;SDS011;21436;52.348;20.928;2023-07-20T00:08:27;7.60;;;4.63;;
35326;SDS011;21436;52.348;20.928;2023-07-20T00:10:55;12.57;;;4.60;;
35326;SDS011;21436;52.348;20.928;2023-07-20T00:13:23;5.85;;;4.47;;
35326;SDS011;21436;52.348;20.928;2023-07-20T00:15:51;6.45;;;4.60;;
35326;SDS011;21436;52.348;20.928;2023-07-20T00:18:19;6.60;;;4.60;;
35326;SDS011;21436;52.348;20.928;2023-07-20T00:20:48;9.02;;;4.68;;
35326;SDS011;21436;52.348;20.928;2023-07-20T00:23:18;8.95;;;4.25;;
35326;SDS011;21436;52.348;20.928;2023-07-20T00:25:50;6.18;;;4.43;;
35326;SDS011;21436;52.348;20.928;2023-07-20T00:28:19;9.68;;;4.25;;
35326;SDS011;21436;52.348;20.928;2023-07-20T00:30:48;7.28;;;4.43;;
35326;SDS011;21436;52.348;20.928;2023-07-20T00:33:17;8.57;;;4.70;;
35326;SDS011;21436;52.348;20.928;2023-07-20T00:35:45;9.27;;;5.53;;
35326;SDS011;21436;52.348;20.928;2023-07-20T00:38:16;6.97;;;5.60;;
35326;SDS011;21436;52.348;20.928;2023-07-20T00:40:43;7.18;;;4.65;;
35326;SDS011;21436;52.348;20.928;2023-07-20T00:43:12;9.82;;;4.43;;
35326;SDS011;21436;52.348;20.928;2023-07-20T00:45:39;6.28;;;4.40;;
35326;SDS011;21436;52.348;20.928;2023-07-20T00:48:08;8.27;;;5.15;;
35326;SDS011;21436;52.348;20.928;2023-07-20T00:50:36;4.78;;;3.97;;
35326;SDS011;21436;52.348;20.928;2023-07-20T00:53:04;5.82;;;4.68;;
35326;SDS011;21436;52.348;20.928;2023-07-20T00:55:33;5.75;;;3.88;;
35326;SDS011;21436;52.348;20.928;2023-07-20T00:58:01;9.82;;;5.07;;
35326;SDS011;21436;52.348;20.928;2023-07-20T01:00:29;8.63;;;4.30;;
35326;SDS011;21436;52.348;20.928;2023-07-20T01:02:57;6.15;;;4.40;;
35326;SDS011;21436;52.348;20.928;2023-07-20T01:11:23;6.93;;;4.53;;
35326;SDS011;21436;52.348;20.928;2023-07-20T01:14:00;7.78;;;4.57;;
35326;SDS011;21436;52.348;20.928;2023-07-20T01:16:28;7.93;;;4.75;;
35326;SDS011;21436;52.348;20.928;2023-07-20T01:18:56;6.25;;;4.35;;
35326;SDS011;21436;52.348;20.928;2023-07-20T01:21:26;7.47;;;4.35;;
35326;SDS011;21436;52.348;20.928;2023-07-20T01:24:05;8.00;;;4.53;;
35326;SDS011;21436;52.348;20.928;2023-07-20T01:26:51;5.93;;;3.83;;
35326;SDS011;21436;52.348;20.928;2023-07-20T01:32:32;8.95;;;4.82;;
35326;SDS011;21436;52.348;20.928;2023-07-20T01:35:01;8.48;;;4.80;;
35326;SDS011;21436;52.348;20.928;2023-07-20T01:37:29;6.85;;;3.90;;
35326;SDS011;21436;52.348;20.928;2023-07-20T01:39:58;7.57;;;4.25;;
35326;SDS011;21436;52.348;20.928;2023-07-20T01:42:27;7.00;;;4.03;;
35326;SDS011;21436;52.348;20.928;2023-07-20T01:44:55;10.07;;;3.88;;
35326;SDS011;21436;52.348;20.928;2023-07-20T01:47:23;6.63;;;4.53;;
35326;SDS011;21436;52.348;20.928;2023-07-20T01:49:51;7.65;;;4.00;;
35326;SDS011;21436;52.348;20.928;2023-07-20T01:52:19;6.15;;;4.32;;
35326;SDS011;21436;52.348;20.928;2023-07-20T01:54:47;7.13;;;4.43;;
35326;SDS011;21436;52.348;20.928;2023-07-20T01:57:15;7.80;;;5.05;;
35326;SDS011;21436;52.348;20.928;2023-07-20T01:59:43;6.80;;;4.18;;
35326;SDS011;21436;52.348;20.928;2023-07-20T02:02:11;11.23;;;5.35;;
35326;SDS011;21436;52.348;20.928;2023-07-20T02:04:39;5.80;;;4.60;;
35326;SDS011;21436;52.348;20.928;2023-07-20T02:07:07;6.80;;;4.43;;
35326;SDS011;21436;52.348;20.928;2023-07-20T02:09:35;6.15;;;4.28;;
35326;SDS011;21436;52.348;20.928;2023-07-20T02:12:02;6.63;;;4.70;;
35326;SDS011;21436;52.348;20.928;2023-07-20T02:14:31;7.40;;;4.47;;
35326;SDS011;21436;52.348;20.928;2023-07-20T02:16:58;5.80;;;4.50;;
35326;SDS011;21436;52.348;20.928;2023-07-20T02:19:29;7.88;;;4.57;;
35326;SDS011;21436;52.348;20.928;2023-07-20T02:21:57;6.15;;;4.07;;
35326;SDS011;21436;52.348;20.928;2023-07-20T02:24:25;5.82;;;4.63;;
35326;SDS011;21436;52.348;20.928;2023-07-20T02:26:53;7.85;;;4.95;;
35326;SDS011;21436;52.348;20.928;2023-07-20T02:29:21;7.57;;;4.20;;
35326;SDS011;21436;52.348;20.928;2023-07-20T02:31:49;7.85;;;4.60;;
35326;SDS011;21436;52.348;20.928;2023-07-20T02:34:18;8.27;;;5.10;;
35326;SDS011;21436;52.348;20.928;2023-07-20T02:36:46;7.22;;;4.40;;
35326;SDS011;21436;52.348;20.928;2023-07-20T02:39:13;9.95;;;4.47;;
35326;SDS011;21436;52.348;20.928;2023-07-20T02:41:42;8.00;;;4.40;;
35326;SDS011;21436;52.348;20.928;2023-07-20T02:44:10;6.75;;;4.60;;
35326;SDS011;21436;52.348;20.928;2023-07-20T02:46:37;8.48;;;4.50;;
35326;SDS011;21436;52.348;20.928;2023-07-20T02:49:05;6.38;;;4.90;;
35326;SDS011;21436;52.348;20.928;2023-07-20T02:51:33;6.90;;;4.40;;
35326;SDS011;21436;52.348;20.928;2023-07-20T02:54:01;7.97;;;4.78;;
35326;SDS011;21436;52.348;20.928;2023-07-20T02:56:29;7.28;;;4.97;;
35326;SDS011;21436;52.348;20.928;2023-07-20T02:58:57;6.55;;;4.60;;
35326;SDS011;21436;52.348;20.928;2023-07-20T03:01:25;9.30;;;5.20;;
35326;SDS011;21436;52.348;20.928;2023-07-20T03:03:56;7.00;;;5.20;;
35326;SDS011;21436;52.348;20.928;2023-07-20T03:06:25;8.55;;;5.47;;
35326;SDS011;21436;52.348;20.928;2023-07-20T03:08:53;9.32;;;5.32;;
35326;SDS011;21436;52.348;20.928;2023-07-20T03:11:21;9.40;;;5.90;;
35326;SDS011;21436;52.348;20.928;2023-07-20T03:13:49;8.68;;;5.47;;
35326;SDS011;21436;52.348;20.928;2023-07-20T03:16:17;8.40;;;5.20;;
35326;SDS011;21436;52.348;20.928;2023-07-20T03:18:46;8.77;;;5.75;;
35326;SDS011;21436;52.348;20.928;2023-07-20T03:21:14;11.48;;;5.63;;
35326;SDS011;21436;52.348;20.928;2023-07-20T03:23:43;7.22;;;5.40;;
35326;SDS011;21436;52.348;20.928;2023-07-20T03:26:11;8.45;;;6.32;;
35326;SDS011;21436;52.348;20.928;2023-07-20T03:28:40;9.15;;;6.18;;
35326;SDS011;21436;52.348;20.928;2023-07-20T03:31:10;9.20;;;6.78;;
35326;SDS011;21436;52.348;20.928;2023-07-20T03:33:40;8.27;;;6.22;;
35326;SDS011;21436;52.348;20.928;2023-07-20T03:36:09;6.72;;;5.68;;
35326;SDS011;21436;52.348;20.928;2023-07-20T03:38:38;10.27;;;5.85;;
35326;SDS011;21436;52.348;20.928;2023-07-20T03:41:06;8.07;;;5.97;;
35326;SDS011;21436;52.348;20.928;2023-07-20T03:43:34;11.50;;;6.22;;
35326;SDS011;21436;52.348;20.928;2023-07-20T03:46:02;9.35;;;6.18;;
35326;SDS011;21436;52.348;20.928;2023-07-20T03:48:34;8.70;;;6.40;;
35326;SDS011;21436;52.348;20.928;2023-07-20T03:51:03;8.57;;;5.75;;
35326;SDS011;21436;52.348;20.928;2023-07-20T03:53:31;7.03;;;5.80;;
35326;SDS011;21436;52.348;20.928;2023-07-20T03:56:00;10.00;;;6.13;;
35326;SDS011;21436;52.348;20.928;2023-07-20T03:58:29;11.10;;;6.45;;
35326;SDS011;21436;52.348;20.928;2023-07-20T04:00:57;11.68;;;6.10;;
35326;SDS011;21436;52.348;20.928;2023-07-20T04:03:25;9.23;;;6.38;;
35326;SDS011;21436;52.348;20.928;2023-07-20T04:05:54;10.35;;;6.63;;
35326;SDS011;21436;52.348;20.928;2023-07-20T04:08:25;8.90;;;5.82;;
35326;SDS011;21436;52.348;20.928;2023-07-20T04:10:52;9.10;;;5.90;;
35326;SDS011;21436;52.348;20.928;2023-07-20T04:13:21;10.82;;;6.45;;
35326;SDS011;21436;52.348;20.928;2023-07-20T04:15:49;9.88;;;6.40;;
35326;SDS011;21436;52.348;20.928;2023-07-20T04:18:17;10.55;;;7.05;;
35326;SDS011;21436;52.348;20.928;2023-07-20T04:20:45;8.82;;;7.30;;
35326;SDS011;21436;52.348;20.928;2023-07-20T04:23:13;11.00;;;6.90;;
35326;SDS011;21436;52.348;20.928;2023-07-20T04:25:42;9.90;;;7.05;;
35326;SDS011;21436;52.348;20.928;2023-07-20T04:28:11;9.65;;;7.18;;
35326;SDS011;21436;52.348;20.928;2023-07-20T04:30:44;10.15;;;6.53;;
35326;SDS011;21436;52.348;20.928;2023-07-20T04:33:13;10.00;;;6.93;;
35326;SDS011;21436;52.348;20.928;2023-07-20T04:35:50;8.93;;;6.80;;
35326;SDS011;21436;52.348;20.928;2023-07-20T04:38:24;9.70;;;6.88;;
35326;SDS011;21436;52.348;20.928;2023-07-20T04:41:02;9.18;;;7.28;;
35326;SDS011;21436;52.348;20.928;2023-07-20T04:43:34;11.23;;;7.60;;
35326;SDS011;21436;52.348;20.928;2023-07-20T04:46:01;9.70;;;7.03;;
35326;SDS011;21436;52.348;20.928;2023-07-20T04:48:32;10.88;;;6.70;;
35326;SDS011;21436;52.348;20.928;2023-07-20T04:51:00;9.93;;;6.95;;
35326;SDS011;21436;52.348;20.928;2023-07-20T04:53:29;11.27;;;6.93;;
35326;SDS011;21436;52.348;20.928;2023-07-20T04:55:58;11.60;;;6.95;;
35326;SDS011;21436;52.348;20.928;2023-07-20T04:58:27;12.73;;;7.35;;
35326;SDS011;21436;52.348;20.928;2023-07-20T05:00:55;14.05;;;7.20;;
35326;SDS011;21436;52.348;20.928;2023-07-20T05:03:23;10.45;;;7.82;;
35326;SDS011;21436;52.348;20.928;2023-07-20T05:05:51;10.40;;;7.40;;
35326;SDS011;21436;52.348;20.928;2023-07-20T05:08:19;9.85;;;7.95;;
35326;SDS011;21436;52.348;20.928;2023-07-20T05:10:47;10.57;;;7.63;;
35326;SDS011;21436;52.348;20.928;2023-07-20T05:13:16;10.68;;;7.47;;
35326;SDS011;21436;52.348;20.928;2023-07-20T05:15:44;11.60;;;7.60;;
35326;SDS011;21436;52.348;20.928;2023-07-20T05:18:15;13.20;;;8.05;;
35326;SDS011;21436;52.348;20.928;2023-07-20T05:23:17;10.73;;;8.55;;
35326;SDS011;21436;52.348;20.928;2023-07-20T05:26:00;13.25;;;8.25;;
35326;SDS011;21436;52.348;20.928;2023-07-20T05:28:28;17.08;;;7.97;;
35326;SDS011;21436;52.348;20.928;2023-07-20T05:30:56;10.88;;;8.05;;
35326;SDS011;21436;52.348;20.928;2023-07-20T05:33:27;12.82;;;8.85;;
35326;SDS011;21436;52.348;20.928;2023-07-20T05:35:55;11.10;;;8.32;;
35326;SDS011;21436;52.348;20.928;2023-07-20T05:38:23;15.65;;;8.27;;
35326;SDS011;21436;52.348;20.928;2023-07-20T05:40:51;12.25;;;8.70;;
35326;SDS011;21436;52.348;20.928;2023-07-20T05:43:19;12.45;;;8.60;;
35326;SDS011;21436;52.348;20.928;2023-07-20T05:45:47;13.02;;;9.02;;
35326;SDS011;21436;52.348;20.928;2023-07-20T05:48:15;15.60;;;9.43;;
35326;SDS011;21436;52.348;20.928;2023-07-20T05:50:44;12.23;;;9.07;;
35326;SDS011;21436;52.348;20.928;2023-07-20T05:53:12;17.80;;;9.80;;
35326;SDS011;21436;52.348;20.928;2023-07-20T05:55:51;11.55;;;8.38;;
35326;SDS011;21436;52.348;20.928;2023-07-20T05:58:20;14.00;;;8.57;;
35326;SDS011;21436;52.348;20.928;2023-07-20T06:00:48;12.68;;;9.00;;
35326;SDS011;21436;52.348;20.928;2023-07-20T06:03:18;12.70;;;8.25;;
35326;SDS011;21436;52.348;20.928;2023-07-20T06:05:49;12.13;;;8.68;;
35326;SDS011;21436;52.348;20.928;2023-07-20T06:08:23;10.07;;;7.90;;
35326;SDS011;21436;52.348;20.928;2023-07-20T06:10:52;19.13;;;8.35;;
35326;SDS011;21436;52.348;20.928;2023-07-20T06:13:20;12.25;;;8.18;;
35326;SDS011;21436;52.348;20.928;2023-07-20T06:15:48;11.10;;;7.95;;
35326;SDS011;21436;52.348;20.928;2023-07-20T06:18:17;11.70;;;8.07;;
35326;SDS011;21436;52.348;20.928;2023-07-20T06:20:49;14.98;;;9.85;;
35326;SDS011;21436;52.348;20.928;2023-07-20T06:23:19;10.25;;;7.45;;
35326;SDS011;21436;52.348;20.928;2023-07-20T06:25:47;15.60;;;8.15;;
35326;SDS011;21436;52.348;20.928;2023-07-20T06:28:16;11.80;;;8.55;;
35326;SDS011;21436;52.348;20.928;2023-07-20T06:30:45;11.88;;;7.90;;
35326;SDS011;21436;52.348;20.928;2023-07-20T06:33:13;12.43;;;8.15;;
35326;SDS011;21436;52.348;20.928;2023-07-20T06:35:42;10.40;;;8.05;;
35326;SDS011;21436;52.348;20.928;2023-07-20T06:38:11;9.98;;;7.63;;
35326;SDS011;21436;52.348;20.928;2023-07-20T06:40:47;13.40;;;8.15;;
35326;SDS011;21436;52.348;20.928;2023-07-20T06:43:16;18.13;;;8.98;;
35326;SDS011;21436;52.348;20.928;2023-07-20T06:45:51;11.93;;;8.52;;
35326;SDS011;21436;52.348;20.928;2023-07-20T06:48:21;14.18;;;8.43;;
35326;SDS011;21436;52.348;20.928;2023-07-20T06:50:49;11.77;;;7.68;;
35326;SDS011;21436;52.348;20.928;2023-07-20T06:53:17;10.00;;;7.78;;
35326;SDS011;21436;52.348;20.928;2023-07-20T06:55:45;12.43;;;8.05;;
35326;SDS011;21436;52.348;20.928;2023-07-20T06:58:13;13.48;;;8.60;;
35326;SDS011;21436;52.348;20.928;2023-07-20T07:00:41;11.75;;;8.75;;
35326;SDS011;21436;52.348;20.928;2023-07-20T07:03:10;11.50;;;8.30;;
35326;SDS011;21436;52.348;20.928;2023-07-20T07:05:38;15.95;;;8.38;;
35326;SDS011;21436;52.348;20.928;2023-07-20T07:08:06;13.75;;;8.73;;
35326;SDS011;21436;52.348;20.928;2023-07-20T07:10:35;12.05;;;8.40;;
35326;SDS011;21436;52.348;20.928;2023-07-20T07:13:03;12.20;;;8.25;;
35326;SDS011;21436;52.348;20.928;2023-07-20T07:15:33;15.07;;;8.73;;
35326;SDS011;21436;52.348;20.928;2023-07-20T07:18:01;11.52;;;8.70;;
35326;SDS011;21436;52.348;20.928;2023-07-20T07:20:31;13.13;;;8.27;;
35326;SDS011;21436;52.348;20.928;2023-07-20T07:22:59;13.18;;;8.00;;
35326;SDS011;21436;52.348;20.928;2023-07-20T07:25:28;9.05;;;7.30;;
35326;SDS011;21436;52.348;20.928;2023-07-20T07:27:56;10.88;;;7.82;;
35326;SDS011;21436;52.348;20.928;2023-07-20T07:30:24;10.27;;;7.25;;
35326;SDS011;21436;52.348;20.928;2023-07-20T07:32:52;9.00;;;7.00;;
35326;SDS011;21436;52.348;20.928;2023-07-20T07:35:20;13.75;;;8.13;;
35326;SDS011;21436;52.348;20.928;2023-07-20T07:37:48;13.23;;;8.25;;
35326;SDS011;21436;52.348;20.928;2023-07-20T07:40:19;14.95;;;8.85;;
35326;SDS011;21436;52.348;20.928;2023-07-20T07:42:47;10.05;;;8.50;;
35326;SDS011;21436;52.348;20.928;2023-07-20T07:45:15;12.05;;;9.25;;
35326;SDS011;21436;52.348;20.928;2023-07-20T07:47:44;11.57;;;9.25;;
35326;SDS011;21436;52.348;20.928;2023-07-20T07:50:11;13.77;;;9.15;;
35326;SDS011;21436;52.348;20.928;2023-07-20T07:52:40;11.00;;;9.32;;
35326;SDS011;21436;52.348;20.928;2023-07-20T07:55:08;13.95;;;9.70;;
35326;SDS011;21436;52.348;20.928;2023-07-20T07:57:36;12.43;;;9.48;;
35326;SDS011;21436;52.348;20.928;2023-07-20T08:00:04;12.80;;;9.25;;
35326;SDS011;21436;52.348;20.928;2023-07-20T08:02:33;15.38;;;9.95;;
35326;SDS011;21436;52.348;20.928;2023-07-20T08:05:01;14.80;;;10.70;;
35326;SDS011;21436;52.348;20.928;2023-07-20T08:07:29;13.98;;;10.20;;
35326;SDS011;21436;52.348;20.928;2023-07-20T08:09:57;17.77;;;9.85;;
35326;SDS011;21436;52.348;20.928;2023-07-20T08:12:26;15.13;;;9.75;;
35326;SDS011;21436;52.348;20.928;2023-07-20T08:14:54;13.77;;;10.52;;
35326;SDS011;21436;52.348;20.928;2023-07-20T08:17:23;12.82;;;10.13;;
35326;SDS011;21436;52.348;20.928;2023-07-20T08:19:52;13.77;;;9.55;;
35326;SDS011;21436;52.348;20.928;2023-07-20T08:22:19;13.27;;;10.63;;
35326;SDS011;21436;52.348;20.928;2023-07-20T08:24:48;13.75;;;10.05;;
35326;SDS011;21436;52.348;20.928;2023-07-20T08:27:16;12.18;;;7.90;;
35326;SDS011;21436;52.348;20.928;2023-07-20T08:29:44;12.25;;;8.85;;
35326;SDS011;21436;52.348;20.928;2023-07-20T08:32:12;11.60;;;9.70;;
35326;SDS011;21436;52.348;20.928;2023-07-20T08:34:42;15.90;;;9.95;;
35326;SDS011;21436;52.348;20.928;2023-07-20T08:37:10;12.00;;;9.50;;
35326;SDS011;21436;52.348;20.928;2023-07-20T08:39:38;12.13;;;9.32;;
35326;SDS011;21436;52.348;20.928;2023-07-20T08:42:07;12.57;;;8.98;;
35326;SDS011;21436;52.348;20.928;2023-07-20T08:44:35;10.18;;;8.50;;
35326;SDS011;21436;52.348;20.928;2023-07-20T08:47:04;11.43;;;7.70;;
35326;SDS011;21436;52.348;20.928;2023-07-20T08:49:35;7.90;;;6.50;;
35326;SDS011;21436;52.348;20.928;2023-07-20T08:52:03;7.07;;;5.03;;
35326;SDS011;21436;52.348;20.928;2023-07-20T08:54:32;6.20;;;3.83;;
35326;SDS011;21436;52.348;20.928;2023-07-20T08:57:02;6.03;;;4.07;;
35326;SDS011;21436;52.348;20.928;2023-07-20T08:59:31;6.60;;;4.10;;
35326;SDS011;21436;52.348;20.928;2023-07-20T09:01:59;4.35;;;3.83;;
35326;SDS011;21436;52.348;20.928;2023-07-20T09:04:28;4.82;;;4.22;;
35326;SDS011;21436;52.348;20.928;2023-07-20T09:06:56;8.65;;;4.13;;
35326;SDS011;21436;52.348;20.928;2023-07-20T09:09:25;6.10;;;3.47;;
35326;SDS011;21436;52.348;20.928;2023-07-20T09:11:53;4.82;;;3.55;;
35326;SDS011;21436;52.348;20.928;2023-07-20T09:14:20;3.22;;;2.90;;
35326;SDS011;21436;52.348;20.928;2023-07-20T09:16:53;3.92;;;3.53;;
35326;SDS011;21436;52.348;20.928;2023-07-20T09:19:22;5.50;;;3.42;;
35326;SDS011;21436;52.348;20.928;2023-07-20T09:21:51;4.25;;;3.05;;
35326;SDS011;21436;52.348;20.928;2023-07-20T09:24:19;4.68;;;3.20;;
35326;SDS011;21436;52.348;20.928;2023-07-20T09:26:50;5.55;;;3.88;;
35326;SDS011;21436;52.348;20.928;2023-07-20T09:29:22;5.88;;;3.88;;
35326;SDS011;21436;52.348;20.928;2023-07-20T09:32:03;9.45;;;3.17;;
35326;SDS011;21436;52.348;20.928;2023-07-20T09:34:32;4.70;;;3.40;;
35326;SDS011;21436;52.348;20.928;2023-07-20T09:37:03;3.40;;;2.70;;
35326;SDS011;21436;52.348;20.928;2023-07-20T09:39:32;11.95;;;3.08;;
35326;SDS011;21436;52.348;20.928;2023-07-20T09:42:00;5.18;;;2.95;;
35326;SDS011;21436;52.348;20.928;2023-07-20T09:44:32;3.78;;;2.63;;
35326;SDS011;21436;52.348;20.928;2023-07-20T09:47:03;5.80;;;2.92;;
35326;SDS011;21436;52.348;20.928;2023-07-20T09:49:32;3.22;;;2.80;;
35326;SDS011;21436;52.348;20.928;2023-07-20T09:52:03;3.38;;;2.95;;
35326;SDS011;21436;52.348;20.928;2023-07-20T09:54:32;3.42;;;2.53;;
35326;SDS011;21436;52.348;20.928;2023-07-20T09:57:00;4.63;;;3.35;;
35326;SDS011;21436;52.348;20.928;2023-07-20T09:59:30;3.38;;;2.60;;
35326;SDS011;21436;52.348;20.928;2023-07-20T10:01:58;4.90;;;2.50;;
35326;SDS011;21436;52.348;20.928;2023-07-20T10:04:29;4.43;;;2.70;;
35326;SDS011;21436;52.348;20.928;2023-07-20T10:06:58;3.45;;;2.90;;
35326;SDS011;21436;52.348;20.928;2023-07-20T10:09:27;2.80;;;2.47;;
35326;SDS011;21436;52.348;20.928;2023-07-20T10:11:55;4.05;;;2.60;;
35326;SDS011;21436;52.348;20.928;2023-07-20T10:14:44;4.25;;;2.85;;
35326;SDS011;21436;52.348;20.928;2023-07-20T10:17:29;5.93;;;2.63;;
35326;SDS011;21436;52.348;20.928;2023-07-20T10:19:57;6.13;;;2.80;;
35326;SDS011;21436;52.348;20.928;2023-07-20T10:22:27;4.38;;;2.70;;
35326;SDS011;21436;52.348;20.928;2023-07-20T10:25:02;3.05;;;2.72;;
35326;SDS011;21436;52.348;20.928;2023-07-20T10:27:33;4.32;;;2.72;;
35326;SDS011;21436;52.348;20.928;2023-07-20T10:30:01;3.85;;;2.92;;
35326;SDS011;21436;52.348;20.928;2023-07-20T10:32:32;4.55;;;3.00;;
35326;SDS011;21436;52.348;20.928;2023-07-20T10:35:01;4.03;;;2.90;;
35326;SDS011;21436;52.348;20.928;2023-07-20T10:37:45;5.28;;;2.63;;
35326;SDS011;21436;52.348;20.928;2023-07-20T10:42:57;2.95;;;2.65;;
35326;SDS011;21436;52.348;20.928;2023-07-20T10:48:20;3.58;;;2.75;;
35326;SDS011;21436;52.348;20.928;2023-07-20T10:53:40;3.55;;;2.03;;
35326;SDS011;21436;52.348;20.928;2023-07-20T10:56:09;2.40;;;2.20;;
35326;SDS011;21436;52.348;20.928;2023-07-20T10:58:40;2.80;;;1.88;;
35326;SDS011;21436;52.348;20.928;2023-07-20T11:01:13;4.97;;;2.50;;
35326;SDS011;21436;52.348;20.928;2023-07-20T11:03:49;4.65;;;2.55;;
35326;SDS011;21436;52.348;20.928;2023-07-20T11:08:55;4.35;;;2.30;;
35326;SDS011;21436;52.348;20.928;2023-07-20T11:11:32;3.25;;;2.65;;
35326;SDS011;21436;52.348;20.928;2023-07-20T11:14:10;2.58;;;2.38;;
35326;SDS011;21436;52.348;20.928;2023-07-20T11:16:47;2.50;;;2.30;;
35326;SDS011;21436;52.348;20.928;2023-07-20T11:19:17;5.50;;;2.53;;
35326;SDS011;21436;52.348;20.928;2023-07-20T11:21:51;4.45;;;2.70;;
35326;SDS011;21436;52.348;20.928;2023-07-20T11:24:29;3.05;;;2.47;;
35326;SDS011;21436;52.348;20.928;2023-07-20T11:26:57;3.10;;;2.30;;
35326;SDS011;21436;52.348;20.928;2023-07-20T11:29:24;3.10;;;2.80;;
35326;SDS011;21436;52.348;20.928;2023-07-20T11:32:00;3.28;;;2.58;;
35326;SDS011;21436;52.348;20.928;2023-07-20T11:34:31;3.78;;;2.97;;
35326;SDS011;21436;52.348;20.928;2023-07-20T11:36:59;4.70;;;3.00;;
35326;SDS011;21436;52.348;20.928;2023-07-20T11:39:30;4.30;;;2.90;;
35326;SDS011;21436;52.348;20.928;2023-07-20T11:41:58;3.65;;;3.13;;
35326;SDS011;21436;52.348;20.928;2023-07-20T11:44:26;4.00;;;3.20;;
35326;SDS011;21436;52.348;20.928;2023-07-20T11:47:08;3.50;;;3.15;;
35326;SDS011;21436;52.348;20.928;2023-07-20T11:49:37;3.40;;;3.15;;
35326;SDS011;21436;52.348;20.928;2023-07-20T11:52:11;4.15;;;3.38;;
35326;SDS011;21436;52.348;20.928;2023-07-20T11:54:43;3.58;;;2.80;;
35326;SDS011;21436;52.348;20.928;2023-07-20T11:57:18;4.13;;;2.45;;
35326;SDS011;21436;52.348;20.928;2023-07-20T11:59:55;2.88;;;2.30;;
35326;SDS011;21436;52.348;20.928;2023-07-20T12:02:27;2.50;;;2.30;;
35326;SDS011;21436;52.348;20.928;2023-07-20T12:04:56;3.38;;;2.70;;
35326;SDS011;21436;52.348;20.928;2023-07-20T12:07:25;2.38;;;2.17;;
35326;SDS011;21436;52.348;20.928;2023-07-20T12:10:07;2.45;;;2.22;;
35326;SDS011;21436;52.348;20.928;2023-07-20T12:12:42;2.78;;;2.17;;
35326;SDS011;21436;52.348;20.928;2023-07-20T12:17:42;3.70;;;2.40;;
35326;SDS011;21436;52.348;20.928;2023-07-20T12:20:12;2.75;;;1.92;;
35326;SDS011;21436;52.348;20.928;2023-07-20T12:22:40;2.42;;;2.20;;
35326;SDS011;21436;52.348;20.928;2023-07-20T12:25:08;2.20;;;2.00;;
35326;SDS011;21436;52.348;20.928;2023-07-20T12:27:36;2.40;;;2.20;;
35326;SDS011;21436;52.348;20.928;2023-07-20T12:30:05;2.75;;;2.13;;
35326;SDS011;21436;52.348;20.928;2023-07-20T12:32:33;2.97;;;2.20;;
35326;SDS011;21436;52.348;20.928;2023-07-20T12:35:01;2.17;;;1.98;;
35326;SDS011;21436;52.348;20.928;2023-07-20T12:37:29;2.42;;;2.08;;
35326;SDS011;21436;52.348;20.928;2023-07-20T12:39:56;2.30;;;2.10;;
35326;SDS011;21436;52.348;20.928;2023-07-20T12:42:23;2.90;;;2.00;;
35326;SDS011;21436;52.348;20.928;2023-07-20T12:44:51;3.70;;;2.20;;
35326;SDS011;21436;52.348;20.928;2023-07-20T12:47:18;2.55;;;2.25;;
35326;SDS011;21436;52.348;20.928;2023-07-20T12:49:46;2.67;;;2.03;;
35326;SDS011;21436;52.348;20.928;2023-07-20T12:52:13;2.50;;;2.30;;
35326;SDS011;21436;52.348;20.928;2023-07-20T12:54:41;3.03;;;2.17;;
35326;SDS011;21436;52.348;20.928;2023-07-20T12:57:08;4.05;;;2.50;;
35326;SDS011;21436;52.348;20.928;2023-07-20T12:59:39;2.70;;;2.38;;
35326;SDS011;21436;52.348;20.928;2023-07-20T13:02:06;3.15;;;2.20;;
35326;SDS011;21436;52.348;20.928;2023-07-20T13:04:34;4.18;;;2.60;;
35326;SDS011;21436;52.348;20.928;2023-07-20T13:07:01;5.25;;;2.80;;
35326;SDS011;21436;52.348;20.928;2023-07-20T13:09:48;3.47;;;2.40;;
35326;SDS011;21436;52.348;20.928;2023-07-20T13:12:15;2.05;;;1.95;;
35326;SDS011;21436;52.348;20.928;2023-07-20T13:14:43;3.85;;;2.67;;
35326;SDS011;21436;52.348;20.928;2023-07-20T13:17:10;4.25;;;2.90;;
35326;SDS011;21436;52.348;20.928;2023-07-20T13:19:38;2.92;;;2.63;;
35326;SDS011;21436;52.348;20.928;2023-07-20T13:22:05;2.42;;;2.22;;
35326;SDS011;21436;52.348;20.928;2023-07-20T13:24:32;2.67;;;2.08;;
35326;SDS011;21436;52.348;20.928;2023-07-20T13:26:59;2.78;;;2.53;;
35326;SDS011;21436;52.348;20.928;2023-07-20T13:29:27;2.25;;;2.05;;
35326;SDS011;21436;52.348;20.928;2023-07-20T13:31:54;3.38;;;2.10;;
35326;SDS011;21436;52.348;20.928;2023-07-20T13:34:22;2.17;;;2.00;;
35326;SDS011;21436;52.348;20.928;2023-07-20T13:36:49;2.30;;;2.08;;
35326;SDS011;21436;52.348;20.928;2023-07-20T13:39:17;2.95;;;2.45;;
35326;SDS011;21436;52.348;20.928;2023-07-20T13:41:44;3.38;;;2.40;;
35326;SDS011;21436;52.348;20.928;2023-07-20T13:44:12;2.65;;;2.38;;
35326;SDS011;21436;52.348;20.928;2023-07-20T13:46:43;4.13;;;2.30;;
35326;SDS011;21436;52.348;20.928;2023-07-20T13:49:11;2.85;;;2.47;;
35326;SDS011;21436;52.348;20.928;2023-07-20T13:51:48;2.80;;;2.60;;
35326;SDS011;21436;52.348;20.928;2023-07-20T13:54:36;3.67;;;2.60;;
35326;SDS011;21436;52.348;20.928;2023-07-20T13:57:12;3.40;;;2.65;;
35326;SDS011;21436;52.348;20.928;2023-07-20T13:59:42;7.22;;;2.80;;
35326;SDS011;21436;52.348;20.928;2023-07-20T14:02:10;3.75;;;2.78;;
35326;SDS011;21436;52.348;20.928;2023-07-20T14:04:40;4.22;;;2.60;;
35326;SDS011;21436;52.348;20.928;2023-07-20T14:07:08;3.33;;;2.47;;
35326;SDS011;21436;52.348;20.928;2023-07-20T14:09:36;5.10;;;2.92;;
35326;SDS011;21436;52.348;20.928;2023-07-20T14:12:23;4.10;;;3.28;;
35326;SDS011;21436;52.348;20.928;2023-07-20T14:14:50;4.78;;;3.50;;
35326;SDS011;21436;52.348;20.928;2023-07-20T14:17:18;5.32;;;3.53;;
35326;SDS011;21436;52.348;20.928;2023-07-20T14:19:45;5.95;;;2.90;;
35326;SDS011;21436;52.348;20.928;2023-07-20T14:22:12;2.95;;;2.75;;
35326;SDS011;21436;52.348;20.928;2023-07-20T14:24:39;5.35;;;3.13;;
35326;SDS011;21436;52.348;20.928;2023-07-20T14:27:07;4.10;;;3.50;;
35326;SDS011;21436;52.348;20.928;2023-07-20T14:29:34;3.90;;;3.50;;
35326;SDS011;21436;52.348;20.928;2023-07-20T14:32:03;4.45;;;3.22;;
35326;SDS011;21436;52.348;20.928;2023-07-20T14:34:33;4.75;;;3.20;;
35326;SDS011;21436;52.348;20.928;2023-07-20T14:37:03;4.82;;;2.90;;
35326;SDS011;21436;52.348;20.928;2023-07-20T14:39:31;7.60;;;3.30;;
35326;SDS011;21436;52.348;20.928;2023-07-20T14:41:58;2.03;;;1.80;;
35326;SDS011;21436;52.348;20.928;2023-07-20T14:44:26;1.33;;;1.23;;
35326;SDS011;21436;52.348;20.928;2023-07-20T14:46:53;1.08;;;0.98;;
35326;SDS011;21436;52.348;20.928;2023-07-20T14:49:39;2.20;;;0.90;;
35326;SDS011;21436;52.348;20.928;2023-07-20T14:52:06;0.73;;;0.73;;
35326;SDS011;21436;52.348;20.928;2023-07-20T14:54:37;0.73;;;0.73;;
35326;SDS011;21436;52.348;20.928;2023-07-20T14:57:05;2.78;;;1.00;;
35326;SDS011;21436;52.348;20.928;2023-07-20T14:59:40;0.68;;;0.57;;
35326;SDS011;21436;52.348;20.928;2023-07-20T15:02:11;1.92;;;1.00;;
35326;SDS011;21436;52.348;20.928;2023-07-20T15:04:45;1.15;;;0.88;;
35326;SDS011;21436;52.348;20.928;2023-07-20T15:07:13;1.08;;;0.88;;
35326;SDS011;21436;52.348;20.928;2023-07-20T15:09:41;1.02;;;0.95;;